Time;durP1;ratioP1;P1;durP2;ratioP2;P2;SDS_P1;SDS_P2;PMS_P1;PMS_P2;Temp;Humidity;BMP_temperature;BMP_pressure;BME280_temperature;BME280_humidity;BME280_pressure;Samples;Min_cycle;Max_cycle;Signal;HPM_P1;HPM_P2
2022/07/16 00:01:23;;;;;;;3.37;2.90;;;;;;;;;;4968434;28;20192;-84
2022/07/16 00:03:50;;;;;;;3.80;2.53;;;;;;;;;;4952969;28;20189;-84
2022/07/16 00:06:15;;;;;;;3.93;2.53;;;;;;;;;;4972593;28;20228;-83
2022/07/16 00:08:40;;;;;;;4.27;2.50;;;;;;;;;;4950936;28;20213;-82
2022/07/16 00:11:05;;;;;;;3.90;2.53;;;;;;;;;;4968926;28;20181;-83
2022/07/16 00:13:30;;;;;;;2.73;2.30;;;;;;;;;;4969226;28;20268;-84
2022/07/16 00:15:56;;;;;;;4.07;2.20;;;;;;;;;;4953074;29;20180;-85
2022/07/16 00:21:05;;;;;;;3.43;2.20;;;;;;;;;;4955925;28;20218;-81
2022/07/16 00:23:30;;;;;;;3.00;2.13;;;;;;;;;;4953021;28;20189;-84
2022/07/16 00:25:55;;;;;;;3.00;2.37;;;;;;;;;;4952349;28;20185;-85
2022/07/16 00:28:21;;;;;;;2.83;2.30;;;;;;;;;;4947593;28;20231;-83
2022/07/16 00:30:46;;;;;;;3.67;2.30;;;;;;;;;;4966669;28;20240;-85
2022/07/16 00:33:11;;;;;;;3.90;2.53;;;;;;;;;;4955895;28;20190;-84
2022/07/16 00:35:36;;;;;;;4.20;2.30;;;;;;;;;;4953820;28;20185;-85
2022/07/16 00:38:01;;;;;;;3.07;2.87;;;;;;;;;;4948635;28;20239;-85
2022/07/16 00:40:27;;;;;;;3.30;2.43;;;;;;;;;;4952170;28;20252;-84
2022/07/16 00:42:52;;;;;;;3.80;2.70;;;;;;;;;;4965308;28;20472;-84
2022/07/16 00:45:17;;;;;;;4.27;2.53;;;;;;;;;;4968279;28;20219;-84
2022/07/16 00:47:42;;;;;;;4.90;2.43;;;;;;;;;;4966140;28;20200;-84
2022/07/16 00:50:08;;;;;;;3.07;2.37;;;;;;;;;;4967393;28;21309;-84
2022/07/16 00:52:36;;;;;;;2.67;2.07;;;;;;;;;;4951161;28;20181;-84
2022/07/16 00:55:02;;;;;;;2.73;2.40;;;;;;;;;;4949707;28;20192;-83
2022/07/16 00:57:28;;;;;;;3.00;2.40;;;;;;;;;;4967469;28;20194;-84
2022/07/16 00:59:53;;;;;;;2.80;2.47;;;;;;;;;;4965719;28;20266;-84
2022/07/16 01:02:18;;;;;;;2.97;2.43;;;;;;;;;;4952401;29;20239;-85
2022/07/16 01:04:43;;;;;;;2.23;2.03;;;;;;;;;;4970882;28;20190;-85
2022/07/16 01:07:09;;;;;;;2.30;1.90;;;;;;;;;;4951425;28;20231;-83
2022/07/16 01:09:34;;;;;;;2.70;2.40;;;;;;;;;;4969312;28;20176;-83
2022/07/16 01:11:59;;;;;;;2.30;2.10;;;;;;;;;;4944948;28;20180;-84
2022/07/16 01:14:24;;;;;;;4.17;2.30;;;;;;;;;;4950702;28;21518;-84
2022/07/16 01:16:50;;;;;;;3.20;2.30;;;;;;;;;;4950335;28;20209;-82
2022/07/16 01:19:15;;;;;;;2.80;2.27;;;;;;;;;;4971387;28;20239;-84
2022/07/16 01:21:43;;;;;;;4.37;2.80;;;;;;;;;;4958299;28;20191;-83
2022/07/16 01:24:08;;;;;;;3.73;2.40;;;;;;;;;;4974545;28;20187;-82
2022/07/16 01:26:33;;;;;;;4.33;2.43;;;;;;;;;;4952046;28;20203;-84
2022/07/16 01:28:58;;;;;;;2.77;2.30;;;;;;;;;;4960534;28;20271;-83
2022/07/16 01:31:23;;;;;;;2.83;2.40;;;;;;;;;;4956065;28;20278;-84
2022/07/16 01:34:24;;;;;;;4.20;3.13;;;;;;;;;;4949734;28;20202;-82
2022/07/16 01:36:34;;;;;;;2.77;2.20;;;;;;;;;;4950436;28;20215;-84
2022/07/16 01:39:00;;;;;;;3.97;1.90;;;;;;;;;;4950480;28;20206;-84
2022/07/16 01:41:25;;;;;;;4.37;2.70;;;;;;;;;;4951241;28;20187;-83
2022/07/16 01:43:50;;;;;;;2.70;2.13;;;;;;;;;;4964459;28;20211;-84
2022/07/16 01:46:15;;;;;;;3.10;2.10;;;;;;;;;;4951371;28;20187;-83
2022/07/16 01:48:40;;;;;;;2.57;2.00;;;;;;;;;;4943663;28;20208;-84
2022/07/16 01:51:06;;;;;;;2.90;2.00;;;;;;;;;;4947136;28;20185;-81
2022/07/16 01:53:31;;;;;;;4.37;2.33;;;;;;;;;;4949493;28;20191;-82
2022/07/16 01:55:57;;;;;;;2.40;2.20;;;;;;;;;;4966770;28;20212;-84
2022/07/16 01:58:22;;;;;;;2.73;2.23;;;;;;;;;;4950880;28;20187;-84
2022/07/16 02:00:47;;;;;;;2.50;2.30;;;;;;;;;;4961599;28;20233;-83
2022/07/16 02:03:16;;;;;;;2.30;2.10;;;;;;;;;;4963811;28;20192;-84
2022/07/16 02:05:42;;;;;;;3.60;2.50;;;;;;;;;;4949034;28;20204;-82
2022/07/16 02:08:07;;;;;;;3.77;2.00;;;;;;;;;;4965392;28;20365;-83
2022/07/16 02:10:33;;;;;;;3.00;2.00;;;;;;;;;;4965506;28;20269;-84
2022/07/16 02:12:59;;;;;;;3.30;2.17;;;;;;;;;;4967110;28;20184;-83
2022/07/16 02:15:27;;;;;;;2.07;1.87;;;;;;;;;;4964606;28;20183;-83
2022/07/16 02:17:52;;;;;;;2.77;2.30;;;;;;;;;;4947439;28;20223;-83
2022/07/16 02:20:18;;;;;;;3.67;2.17;;;;;;;;;;4948816;28;20179;-82
2022/07/16 02:22:43;;;;;;;2.90;2.10;;;;;;;;;;4967896;28;20186;-84
2022/07/16 02:25:10;;;;;;;2.87;2.20;;;;;;;;;;4966112;28;20250;-83
2022/07/16 02:27:36;;;;;;;2.13;1.93;;;;;;;;;;4967096;28;20234;-82
2022/07/16 02:30:02;;;;;;;3.10;1.90;;;;;;;;;;4952393;28;20206;-83
2022/07/16 02:32:28;;;;;;;2.70;2.50;;;;;;;;;;4967393;28;20187;-82
2022/07/16 02:34:53;;;;;;;4.60;2.07;;;;;;;;;;4963324;28;20194;-80
2022/07/16 02:37:18;;;;;;;5.40;2.50;;;;;;;;;;4948514;28;20187;-80
2022/07/16 02:39:43;;;;;;;3.57;2.30;;;;;;;;;;4966974;28;20195;-80
2022/07/16 02:42:09;;;;;;;5.90;2.40;;;;;;;;;;4965313;28;20187;-80
2022/07/16 02:44:34;;;;;;;2.97;2.10;;;;;;;;;;4965543;28;20192;-80
2022/07/16 02:46:59;;;;;;;3.27;2.40;;;;;;;;;;4962514;28;20228;-81
2022/07/16 02:49:24;;;;;;;4.03;2.33;;;;;;;;;;4968935;28;20235;-81
2022/07/16 02:51:50;;;;;;;3.43;2.80;;;;;;;;;;4953721;28;20270;-81
2022/07/16 02:54:15;;;;;;;3.23;2.30;;;;;;;;;;4965165;28;20294;-80
2022/07/16 02:56:40;;;;;;;5.67;2.13;;;;;;;;;;4949113;28;20230;-80
2022/07/16 02:59:05;;;;;;;2.23;2.07;;;;;;;;;;4964699;28;20179;-81
2022/07/16 03:01:30;;;;;;;2.43;1.60;;;;;;;;;;4945469;28;20187;-80
2022/07/16 03:03:56;;;;;;;2.50;2.17;;;;;;;;;;4951469;28;20229;-80
2022/07/16 03:06:21;;;;;;;4.10;2.30;;;;;;;;;;4950986;28;20209;-80
2022/07/16 03:08:46;;;;;;;3.77;2.30;;;;;;;;;;4948743;28;20214;-80
2022/07/16 03:11:12;;;;;;;2.30;1.90;;;;;;;;;;4960454;28;20238;-80
2022/07/16 03:13:37;;;;;;;3.07;1.93;;;;;;;;;;4953145;28;20182;-80
2022/07/16 03:16:03;;;;;;;2.17;1.80;;;;;;;;;;4967684;28;20189;-80
2022/07/16 03:18:28;;;;;;;2.33;2.07;;;;;;;;;;4975787;28;20224;-80
2022/07/16 03:20:53;;;;;;;4.10;2.10;;;;;;;;;;4975200;28;20182;-80
2022/07/16 03:23:18;;;;;;;5.23;2.00;;;;;;;;;;4973437;28;20187;-80
2022/07/16 03:25:44;;;;;;;2.40;2.20;;;;;;;;;;4955590;28;20225;-80
2022/07/16 03:28:09;;;;;;;3.47;2.63;;;;;;;;;;4971784;28;20269;-80
2022/07/16 03:30:35;;;;;;;4.20;2.27;;;;;;;;;;4962580;28;20184;-80
2022/07/16 03:33:00;;;;;;;3.03;2.10;;;;;;;;;;4952904;28;20206;-80
2022/07/16 03:35:25;;;;;;;2.53;2.33;;;;;;;;;;4956253;28;20189;-80
2022/07/16 03:40:34;;;;;;;4.13;2.50;;;;;;;;;;4955429;28;20241;-80
2022/07/16 03:42:59;;;;;;;3.03;2.10;;;;;;;;;;4967337;28;20185;-80
2022/07/16 03:45:25;;;;;;;2.57;2.30;;;;;;;;;;4970686;28;20193;-80
2022/07/16 03:47:50;;;;;;;2.40;1.93;;;;;;;;;;4967849;28;20305;-81
2022/07/16 03:50:15;;;;;;;2.53;2.23;;;;;;;;;;4969375;28;20272;-80
2022/07/16 03:52:40;;;;;;;2.60;2.40;;;;;;;;;;4952878;28;20189;-80
2022/07/16 03:55:06;;;;;;;3.10;2.57;;;;;;;;;;4950812;29;20178;-80
2022/07/16 03:57:31;;;;;;;2.80;2.10;;;;;;;;;;4951108;28;20217;-80
2022/07/16 03:59:56;;;;;;;3.23;2.50;;;;;;;;;;4953476;28;20185;-80
2022/07/16 04:02:21;;;;;;;3.20;2.20;;;;;;;;;;4944221;28;20187;-80
2022/07/16 04:04:47;;;;;;;2.63;1.80;;;;;;;;;;4952340;28;20200;-80
2022/07/16 04:07:12;;;;;;;3.93;2.47;;;;;;;;;;4970444;28;20216;-80
2022/07/16 04:09:37;;;;;;;2.67;2.07;;;;;;;;;;4969370;28;20205;-80
2022/07/16 04:12:02;;;;;;;2.20;2.00;;;;;;;;;;4968032;28;20359;-80
2022/07/16 04:14:27;;;;;;;2.80;1.97;;;;;;;;;;4966843;28;20253;-80
2022/07/16 04:16:53;;;;;;;2.13;1.93;;;;;;;;;;4971192;28;20230;-80
2022/07/16 04:19:18;;;;;;;2.30;2.10;;;;;;;;;;4966297;28;20233;-80
2022/07/16 04:21:43;;;;;;;4.40;2.20;;;;;;;;;;4950343;28;20178;-80
2022/07/16 04:24:08;;;;;;;2.10;1.90;;;;;;;;;;4949390;28;20205;-81
2022/07/16 04:26:33;;;;;;;3.60;1.97;;;;;;;;;;4967827;28;20194;-80
2022/07/16 04:28:59;;;;;;;2.90;2.20;;;;;;;;;;4965768;28;20177;-80
2022/07/16 04:31:24;;;;;;;2.60;2.10;;;;;;;;;;4967491;28;20186;-80
2022/07/16 04:33:49;;;;;;;3.30;2.10;;;;;;;;;;4961553;28;20200;-80
2022/07/16 04:36:14;;;;;;;2.20;2.00;;;;;;;;;;4955721;28;20183;-80
2022/07/16 04:38:40;;;;;;;2.33;2.10;;;;;;;;;;4948059;29;20220;-81
2022/07/16 04:41:05;;;;;;;3.43;2.00;;;;;;;;;;4969297;28;20252;-81
2022/07/16 04:43:30;;;;;;;3.30;2.00;;;;;;;;;;4966872;28;20200;-81
2022/07/16 04:45:56;;;;;;;4.87;2.20;;;;;;;;;;4963908;28;20189;-81
2022/07/16 04:48:21;;;;;;;2.70;2.10;;;;;;;;;;4967601;28;20217;-81
2022/07/16 04:50:47;;;;;;;5.70;2.30;;;;;;;;;;4960511;28;20189;-81
2022/07/16 04:53:12;;;;;;;3.97;2.37;;;;;;;;;;4969901;28;20201;-81
2022/07/16 04:55:37;;;;;;;2.57;2.37;;;;;;;;;;4954469;28;20202;-81
2022/07/16 04:58:02;;;;;;;2.60;2.40;;;;;;;;;;4963703;28;20182;-80
2022/07/16 05:00:27;;;;;;;7.00;2.50;;;;;;;;;;4969852;28;20228;-81
2022/07/16 05:02:56;;;;;;;4.33;2.30;;;;;;;;;;4971609;28;20182;-81
2022/07/16 05:05:22;;;;;;;3.63;2.13;;;;;;;;;;4951115;28;20194;-81
2022/07/16 05:07:47;;;;;;;2.57;2.37;;;;;;;;;;4967530;28;20218;-81
2022/07/16 05:10:13;;;;;;;2.70;2.07;;;;;;;;;;4953332;28;20178;-81
2022/07/16 05:12:38;;;;;;;2.97;2.40;;;;;;;;;;4967805;28;20181;-80
2022/07/16 05:15:03;;;;;;;3.63;2.33;;;;;;;;;;4969508;28;20213;-80
2022/07/16 05:17:29;;;;;;;3.57;2.10;;;;;;;;;;4955084;28;20193;-81
2022/07/16 05:19:54;;;;;;;3.80;2.47;;;;;;;;;;4968904;28;20185;-81
2022/07/16 05:22:19;;;;;;;3.87;2.30;;;;;;;;;;4977888;28;20221;-81
2022/07/16 05:24:44;;;;;;;2.43;2.23;;;;;;;;;;4951295;28;20191;-81
2022/07/16 05:27:09;;;;;;;3.40;2.60;;;;;;;;;;4971228;28;20218;-80
2022/07/16 05:29:34;;;;;;;4.67;2.60;;;;;;;;;;4955255;28;20416;-81
2022/07/16 05:32:00;;;;;;;2.93;1.93;;;;;;;;;;4972099;28;20181;-81
2022/07/16 05:34:25;;;;;;;3.90;2.20;;;;;;;;;;4955441;28;20196;-81
2022/07/16 05:36:50;;;;;;;4.70;2.13;;;;;;;;;;4968313;28;20213;-80
2022/07/16 05:39:15;;;;;;;2.67;2.30;;;;;;;;;;4971608;28;20530;-80
2022/07/16 05:41:41;;;;;;;2.73;2.30;;;;;;;;;;4960807;28;20209;-80
2022/07/16 05:44:06;;;;;;;3.60;2.13;;;;;;;;;;4973144;28;20176;-81
2022/07/16 05:46:32;;;;;;;3.73;2.30;;;;;;;;;;4966614;28;20185;-81
2022/07/16 05:48:57;;;;;;;2.63;1.90;;;;;;;;;;4966432;28;20218;-81
2022/07/16 05:51:22;;;;;;;2.80;1.90;;;;;;;;;;4972158;28;20279;-81
2022/07/16 05:53:47;;;;;;;2.97;2.27;;;;;;;;;;4967790;28;20270;-81
2022/07/16 05:56:12;;;;;;;2.00;1.67;;;;;;;;;;4964083;28;20199;-81
2022/07/16 05:58:38;;;;;;;2.50;2.10;;;;;;;;;;4950662;28;20222;-81
2022/07/16 06:01:03;;;;;;;5.30;2.83;;;;;;;;;;4954413;28;20211;-81
2022/07/16 06:03:28;;;;;;;3.03;1.77;;;;;;;;;;4964075;28;20208;-81
2022/07/16 06:05:53;;;;;;;2.57;2.00;;;;;;;;;;4968431;28;20185;-82
2022/07/16 06:08:18;;;;;;;2.93;2.20;;;;;;;;;;4971025;28;20208;-81
2022/07/16 06:10:44;;;;;;;4.50;2.40;;;;;;;;;;4968598;28;20466;-81
2022/07/16 06:13:10;;;;;;;4.27;1.47;;;;;;;;;;4968927;28;20188;-82
2022/07/16 06:15:35;;;;;;;2.43;1.80;;;;;;;;;;4968012;28;20186;-82
2022/07/16 06:18:00;;;;;;;2.07;1.80;;;;;;;;;;4958162;28;20230;-82
2022/07/16 06:20:26;;;;;;;2.13;1.90;;;;;;;;;;4945157;28;20297;-82
2022/07/16 06:22:54;;;;;;;3.00;1.97;;;;;;;;;;4961857;28;20333;-82
2022/07/16 06:25:19;;;;;;;2.13;1.90;;;;;;;;;;4951101;28;20201;-79
2022/07/16 06:27:44;;;;;;;3.37;1.63;;;;;;;;;;4949146;28;20268;-80
2022/07/16 06:30:10;;;;;;;12.63;2.10;;;;;;;;;;4969592;28;20196;-79
2022/07/16 06:32:35;;;;;;;2.53;1.70;;;;;;;;;;4951661;28;20179;-79
2022/07/16 06:35:00;;;;;;;4.73;2.40;;;;;;;;;;4964936;28;20194;-80
2022/07/16 06:37:26;;;;;;;3.77;2.00;;;;;;;;;;4949085;28;20186;-79
2022/07/16 06:39:51;;;;;;;4.67;1.90;;;;;;;;;;4964484;28;20188;-80
2022/07/16 06:42:16;;;;;;;8.53;2.07;;;;;;;;;;4967191;28;20273;-80
2022/07/16 06:44:42;;;;;;;2.37;2.17;;;;;;;;;;4967516;28;20171;-80
2022/07/16 06:47:07;;;;;;;3.83;2.13;;;;;;;;;;4952670;28;20237;-79
2022/07/16 06:49:32;;;;;;;5.07;2.27;;;;;;;;;;4967255;28;20194;-80
2022/07/16 06:51:57;;;;;;;5.07;2.03;;;;;;;;;;4961588;28;20208;-80
2022/07/16 06:54:23;;;;;;;2.33;1.73;;;;;;;;;;4968253;28;20179;-80
2022/07/16 06:56:48;;;;;;;2.23;2.03;;;;;;;;;;4946264;28;20200;-80
2022/07/16 06:59:13;;;;;;;4.73;2.23;;;;;;;;;;4967285;28;20184;-80
2022/07/16 07:01:38;;;;;;;5.33;1.97;;;;;;;;;;4950291;28;20208;-80
2022/07/16 07:04:03;;;;;;;3.00;1.77;;;;;;;;;;4963794;28;20189;-80
2022/07/16 07:06:29;;;;;;;3.07;1.77;;;;;;;;;;4957788;28;20191;-80
2022/07/16 07:08:54;;;;;;;2.63;1.90;;;;;;;;;;4949336;28;20217;-80
2022/07/16 07:11:19;;;;;;;2.47;2.00;;;;;;;;;;4948539;29;20189;-80
2022/07/16 07:13:44;;;;;;;2.53;1.77;;;;;;;;;;4961680;28;20244;-79
2022/07/16 07:16:10;;;;;;;3.70;1.70;;;;;;;;;;4963271;28;20188;-80
2022/07/16 07:18:36;;;;;;;1.77;1.60;;;;;;;;;;4947314;28;20268;-81
2022/07/16 07:21:01;;;;;;;2.47;1.73;;;;;;;;;;4967353;28;20216;-79
2022/07/16 07:23:26;;;;;;;2.37;2.10;;;;;;;;;;4936953;28;20177;-79
2022/07/16 07:25:51;;;;;;;3.30;2.07;;;;;;;;;;4964688;28;20285;-80
2022/07/16 07:28:17;;;;;;;3.30;2.07;;;;;;;;;;4972572;28;20214;-80
2022/07/16 07:30:42;;;;;;;2.97;1.67;;;;;;;;;;4954122;28;20183;-80
2022/07/16 07:33:08;;;;;;;1.77;1.67;;;;;;;;;;4967718;28;20317;-80
2022/07/16 07:35:33;;;;;;;2.63;1.90;;;;;;;;;;4966120;28;20372;-80
2022/07/16 07:37:58;;;;;;;2.67;2.00;;;;;;;;;;4967715;28;20209;-80
2022/07/16 07:40:24;;;;;;;3.73;2.13;;;;;;;;;;4970838;28;20187;-80
2022/07/16 07:42:49;;;;;;;2.60;2.00;;;;;;;;;;4952570;28;20554;-81
2022/07/16 07:45:14;;;;;;;2.60;2.13;;;;;;;;;;4962736;28;20360;-80
2022/07/16 07:47:39;;;;;;;4.23;3.90;;;;;;;;;;4965326;28;20235;-80
2022/07/16 07:50:05;;;;;;;2.40;1.90;;;;;;;;;;4964213;28;20234;-80
2022/07/16 07:52:30;;;;;;;2.50;2.00;;;;;;;;;;4951069;29;20211;-80
2022/07/16 07:54:56;;;;;;;3.20;2.10;;;;;;;;;;4962756;28;20219;-80
2022/07/16 07:57:21;;;;;;;3.30;2.00;;;;;;;;;;4953254;28;20281;-80
2022/07/16 07:59:46;;;;;;;3.73;1.80;;;;;;;;;;4960225;28;20172;-81
2022/07/16 08:02:12;;;;;;;2.57;2.10;;;;;;;;;;4966678;28;20192;-80
2022/07/16 08:04:39;;;;;;;2.17;2.00;;;;;;;;;;4968736;28;20211;-80
2022/07/16 08:07:05;;;;;;;3.73;2.10;;;;;;;;;;4969503;28;20219;-80
2022/07/16 08:09:30;;;;;;;2.93;2.03;;;;;;;;;;4950966;28;20185;-80
2022/07/16 08:11:55;;;;;;;2.43;2.23;;;;;;;;;;4966282;28;20216;-80
2022/07/16 08:14:20;;;;;;;3.50;2.03;;;;;;;;;;4967980;28;20235;-80
2022/07/16 08:16:46;;;;;;;3.80;2.27;;;;;;;;;;4955550;28;20186;-80
2022/07/16 08:19:11;;;;;;;2.30;2.10;;;;;;;;;;4965623;28;20282;-81
2022/07/16 08:21:36;;;;;;;4.07;2.03;;;;;;;;;;4954627;28;20218;-81
2022/07/16 08:26:46;;;;;;;2.90;2.20;;;;;;;;;;4974440;28;20222;-81
2022/07/16 08:29:11;;;;;;;5.17;2.00;;;;;;;;;;4982440;28;20199;-80
2022/07/16 08:31:36;;;;;;;4.50;2.50;;;;;;;;;;4974465;28;20176;-80
2022/07/16 08:34:01;;;;;;;2.53;2.10;;;;;;;;;;4973203;28;20282;-81
2022/07/16 08:36:27;;;;;;;8.47;2.43;;;;;;;;;;4976722;28;20176;-80
2022/07/16 08:38:52;;;;;;;2.40;2.07;;;;;;;;;;4973540;28;20268;-81
2022/07/16 08:41:18;;;;;;;3.33;1.90;;;;;;;;;;4956772;28;20192;-80
2022/07/16 08:43:43;;;;;;;2.03;1.83;;;;;;;;;;4970879;28;20175;-81
2022/07/16 08:46:10;;;;;;;2.53;1.87;;;;;;;;;;4971559;28;20180;-81
2022/07/16 08:48:37;;;;;;;1.73;1.63;;;;;;;;;;4967668;28;20221;-81
2022/07/16 08:51:03;;;;;;;2.90;2.07;;;;;;;;;;4966403;28;20219;-81
2022/07/16 08:53:31;;;;;;;2.27;1.70;;;;;;;;;;4966572;28;20188;-80
2022/07/16 08:55:58;;;;;;;4.23;2.20;;;;;;;;;;4966625;28;20335;-81
2022/07/16 08:58:23;;;;;;;2.40;1.80;;;;;;;;;;4972688;28;20197;-81
2022/07/16 09:00:48;;;;;;;2.93;1.90;;;;;;;;;;4962164;28;20239;-80
2022/07/16 09:03:14;;;;;;;2.00;1.80;;;;;;;;;;4967751;28;20277;-81
2022/07/16 09:05:39;;;;;;;2.90;1.60;;;;;;;;;;4956708;28;20186;-81
2022/07/16 09:08:05;;;;;;;4.40;2.23;;;;;;;;;;4971465;28;20251;-81
2022/07/16 09:10:37;;;;;;;2.97;1.60;;;;;;;;;;4970142;28;20192;-81
2022/07/16 09:13:03;;;;;;;1.77;1.63;;;;;;;;;;4969277;28;20184;-81
2022/07/16 09:15:34;;;;;;;4.00;1.90;;;;;;;;;;4960510;28;20184;-81
2022/07/16 09:18:06;;;;;;;3.97;2.03;;;;;;;;;;4970948;28;20311;-81
2022/07/16 09:20:31;;;;;;;2.37;1.90;;;;;;;;;;4968280;28;20177;-80
2022/07/16 09:22:57;;;;;;;4.80;2.10;;;;;;;;;;4975047;28;20185;-80
2022/07/16 09:25:22;;;;;;;2.43;2.13;;;;;;;;;;4971114;28;20443;-80
2022/07/16 09:27:55;;;;;;;2.00;1.80;;;;;;;;;;4950872;28;20210;-80
2022/07/16 09:30:24;;;;;;;2.50;2.00;;;;;;;;;;4963167;28;20200;-81
2022/07/16 09:32:49;;;;;;;2.10;1.90;;;;;;;;;;4952137;28;20309;-81
2022/07/16 09:35:16;;;;;;;1.93;1.73;;;;;;;;;;4974504;28;20261;-80
2022/07/16 09:37:54;;;;;;;2.13;1.63;;;;;;;;;;4960137;28;20179;-81
2022/07/16 09:40:35;;;;;;;3.10;2.50;;;;;;;;;;4951671;28;20187;-81
2022/07/16 09:43:00;;;;;;;2.97;2.03;;;;;;;;;;4964146;28;20191;-80
2022/07/16 09:45:26;;;;;;;3.67;1.90;;;;;;;;;;4955921;28;20196;-81
2022/07/16 09:47:51;;;;;;;2.10;1.90;;;;;;;;;;4970142;28;20196;-81
2022/07/16 09:50:16;;;;;;;3.47;2.20;;;;;;;;;;4970482;28;20188;-80
2022/07/16 09:52:42;;;;;;;2.43;2.23;;;;;;;;;;4971223;28;20192;-81
2022/07/16 09:55:08;;;;;;;3.57;2.00;;;;;;;;;;4968662;28;20267;-81
2022/07/16 09:57:33;;;;;;;4.03;2.10;;;;;;;;;;4967099;28;20231;-81
2022/07/16 09:59:59;;;;;;;2.17;1.90;;;;;;;;;;4965635;28;20187;-80
2022/07/16 10:02:24;;;;;;;3.80;2.70;;;;;;;;;;4969322;28;20198;-80
2022/07/16 10:04:50;;;;;;;1.97;1.80;;;;;;;;;;4959109;28;20173;-80
2022/07/16 10:07:19;;;;;;;2.80;2.23;;;;;;;;;;4970766;28;20317;-81
2022/07/16 10:09:44;;;;;;;2.07;1.97;;;;;;;;;;4970100;28;20267;-80
2022/07/16 10:12:14;;;;;;;2.20;2.00;;;;;;;;;;4970722;28;20224;-81
2022/07/16 10:14:41;;;;;;;2.93;2.07;;;;;;;;;;4966088;28;20184;-81
2022/07/16 10:17:13;;;;;;;4.28;2.35;;;;;;;;;;4966461;28;20250;-80
2022/07/16 10:19:39;;;;;;;3.57;1.90;;;;;;;;;;4964809;28;20225;-81
2022/07/16 10:22:16;;;;;;;3.20;2.20;;;;;;;;;;4977571;28;20198;-81
2022/07/16 10:24:45;;;;;;;3.72;1.83;;;;;;;;;;4965266;28;20177;-81
2022/07/16 10:27:17;;;;;;;3.53;2.10;;;;;;;;;;4950955;28;20223;-80
2022/07/16 10:29:42;;;;;;;2.80;1.80;;;;;;;;;;4953353;28;20187;-81
2022/07/16 10:35:25;;;;;;;2.38;1.70;;;;;;;;;;4930233;28;20188;-81
2022/07/16 10:38:02;;;;;;;2.78;1.92;;;;;;;;;;4969401;28;20188;-81
2022/07/16 10:40:28;;;;;;;1.70;1.58;;;;;;;;;;4947851;28;21298;-81
2022/07/16 10:43:12;;;;;;;4.07;2.05;;;;;;;;;;4969448;28;20187;-81
2022/07/16 10:45:54;;;;;;;3.05;1.90;;;;;;;;;;4962402;28;20181;-81
2022/07/16 10:48:19;;;;;;;4.10;2.25;;;;;;;;;;4966975;28;20213;-81
2022/07/16 10:51:04;;;;;;;2.40;1.70;;;;;;;;;;4966672;28;20207;-81
2022/07/16 10:53:50;;;;;;;5.43;2.05;;;;;;;;;;4955281;28;20189;-81
2022/07/16 10:56:30;;;;;;;2.80;1.60;;;;;;;;;;4968377;28;20200;-81
2022/07/16 10:58:55;;;;;;;5.03;1.60;;;;;;;;;;4942151;28;20177;-81
2022/07/16 11:01:21;;;;;;;4.22;1.70;;;;;;;;;;4964438;28;20197;-81
2022/07/16 11:03:50;;;;;;;2.75;1.85;;;;;;;;;;4965472;28;20228;-81
2022/07/16 11:06:17;;;;;;;2.22;1.75;;;;;;;;;;4967220;28;20243;-80
2022/07/16 11:08:43;;;;;;;3.55;2.03;;;;;;;;;;4960041;28;20216;-81
2022/07/16 11:11:08;;;;;;;2.05;1.80;;;;;;;;;;4958953;28;20173;-81
2022/07/16 11:13:33;;;;;;;2.08;1.63;;;;;;;;;;4951399;28;21181;-81
2022/07/16 11:16:08;;;;;;;2.90;1.70;;;;;;;;;;4970188;28;20268;-81
2022/07/16 11:18:40;;;;;;;1.92;1.63;;;;;;;;;;4954183;28;20228;-81
2022/07/16 11:21:06;;;;;;;2.13;1.63;;;;;;;;;;4965886;28;20229;-81
2022/07/16 11:23:46;;;;;;;2.25;1.65;;;;;;;;;;4963510;28;20244;-81
2022/07/16 11:26:11;;;;;;;3.10;1.80;;;;;;;;;;4948559;28;20184;-81
2022/07/16 11:28:48;;;;;;;4.45;2.28;;;;;;;;;;4962189;28;20206;-81
2022/07/16 11:31:13;;;;;;;1.75;1.65;;;;;;;;;;4943573;28;20292;-81
2022/07/16 11:33:38;;;;;;;2.25;2.15;;;;;;;;;;4971080;28;20320;-81
2022/07/16 11:36:05;;;;;;;3.13;1.70;;;;;;;;;;4968993;28;20399;-81
2022/07/16 11:38:31;;;;;;;2.20;1.80;;;;;;;;;;4968787;28;20185;-81
2022/07/16 11:40:56;;;;;;;2.55;1.88;;;;;;;;;;4954813;28;20185;-81
2022/07/16 11:43:30;;;;;;;4.82;1.90;;;;;;;;;;4964491;28;20194;-81
2022/07/16 11:45:56;;;;;;;5.40;2.00;;;;;;;;;;4952378;29;20184;-81
2022/07/16 11:48:21;;;;;;;1.85;1.70;;;;;;;;;;4945151;28;20210;-81
2022/07/16 11:50:47;;;;;;;2.20;1.80;;;;;;;;;;4949467;28;20277;-81
2022/07/16 11:53:12;;;;;;;1.60;1.50;;;;;;;;;;4968467;28;20208;-81
2022/07/16 11:55:42;;;;;;;3.03;1.50;;;;;;;;;;4953035;28;20202;-81
2022/07/16 11:58:07;;;;;;;1.70;1.60;;;;;;;;;;4952004;28;20187;-81
2022/07/16 12:00:45;;;;;;;2.95;1.92;;;;;;;;;;4953216;28;20189;-81
2022/07/16 12:03:11;;;;;;;2.03;1.60;;;;;;;;;;4970484;28;20209;-81
2022/07/16 12:05:36;;;;;;;1.60;1.50;;;;;;;;;;4952080;28;20189;-81
2022/07/16 12:08:02;;;;;;;2.90;2.28;;;;;;;;;;4969649;28;20197;-82
2022/07/16 12:10:27;;;;;;;1.45;1.35;;;;;;;;;;4968493;28;20189;-81
2022/07/16 12:13:22;;;;;;;3.42;1.60;;;;;;;;;;4966457;28;20173;-81
2022/07/16 12:15:55;;;;;;;1.65;1.52;;;;;;;;;;4939916;28;20229;-81
2022/07/16 12:18:21;;;;;;;2.10;1.52;;;;;;;;;;4965232;28;20390;-81
2022/07/16 12:20:46;;;;;;;3.17;1.70;;;;;;;;;;4952011;28;20293;-81
2022/07/16 12:23:12;;;;;;;1.80;1.42;;;;;;;;;;4952759;28;20744;-81
2022/07/16 12:25:41;;;;;;;1.67;1.38;;;;;;;;;;4972377;28;20255;-81
2022/07/16 12:28:08;;;;;;;1.52;1.42;;;;;;;;;;4972919;28;20208;-81
2022/07/16 12:30:36;;;;;;;2.50;1.48;;;;;;;;;;4948947;28;20185;-81
2022/07/16 12:33:03;;;;;;;4.65;1.88;;;;;;;;;;4953541;28;20178;-81
2022/07/16 12:35:38;;;;;;;1.65;1.20;;;;;;;;;;4952800;28;20188;-81
2022/07/16 12:38:04;;;;;;;2.05;1.60;;;;;;;;;;4972443;28;20427;-81
2022/07/16 12:40:30;;;;;;;2.03;1.50;;;;;;;;;;4972415;28;20273;-82
2022/07/16 12:42:55;;;;;;;2.90;1.40;;;;;;;;;;4975555;28;20176;-80
2022/07/16 12:45:20;;;;;;;3.10;2.00;;;;;;;;;;4970170;28;20243;-80
2022/07/16 12:47:45;;;;;;;5.45;1.70;;;;;;;;;;4966957;28;20201;-80
2022/07/16 12:50:11;;;;;;;1.73;1.50;;;;;;;;;;4973731;28;20287;-80
2022/07/16 12:52:36;;;;;;;3.22;1.50;;;;;;;;;;4958034;28;20184;-80
2022/07/16 13:00:29;;;;;;;1.83;1.52;;;;;;;;;;4972970;28;20183;-80
2022/07/16 13:02:54;;;;;;;1.63;1.35;;;;;;;;;;4968620;28;20189;-80
2022/07/16 13:05:19;;;;;;;1.60;1.50;;;;;;;;;;4951687;28;20185;-80
2022/07/16 13:07:45;;;;;;;1.50;1.40;;;;;;;;;;4971526;28;20219;-80
2022/07/16 13:10:11;;;;;;;2.47;1.85;;;;;;;;;;4972109;28;20255;-80
2022/07/16 13:12:36;;;;;;;1.73;1.48;;;;;;;;;;4961053;28;20180;-80
2022/07/16 13:15:01;;;;;;;2.20;1.50;;;;;;;;;;4959549;28;20181;-80
2022/07/16 13:17:26;;;;;;;1.58;1.48;;;;;;;;;;4973214;28;20177;-80
2022/07/16 13:19:52;;;;;;;2.17;1.60;;;;;;;;;;4969929;28;20190;-80
2022/07/16 13:22:17;;;;;;;1.50;1.40;;;;;;;;;;4975990;28;20181;-80
2022/07/16 13:24:42;;;;;;;1.85;1.60;;;;;;;;;;4966983;28;20505;-80
2022/07/16 13:27:07;;;;;;;1.40;1.30;;;;;;;;;;4956569;28;20184;-80
2022/07/16 13:29:32;;;;;;;2.58;1.80;;;;;;;;;;4965853;28;20417;-80
2022/07/16 13:31:58;;;;;;;2.63;1.92;;;;;;;;;;4970774;28;20590;-80
2022/07/16 13:34:23;;;;;;;1.80;1.70;;;;;;;;;;4973195;28;20181;-80
2022/07/16 13:36:48;;;;;;;1.73;1.63;;;;;;;;;;4970569;28;20258;-80
2022/07/16 13:39:14;;;;;;;2.05;1.70;;;;;;;;;;4970795;28;20241;-80
2022/07/16 13:41:39;;;;;;;2.40;1.77;;;;;;;;;;4956192;28;20181;-80
2022/07/16 13:44:04;;;;;;;2.67;1.50;;;;;;;;;;4961201;28;20181;-81
2022/07/16 13:46:29;;;;;;;2.80;1.95;;;;;;;;;;4970753;28;20608;-80
2022/07/16 13:48:55;;;;;;;1.90;1.80;;;;;;;;;;4956487;28;20215;-80
2022/07/16 13:51:21;;;;;;;1.65;1.55;;;;;;;;;;4971980;28;20173;-80
2022/07/16 13:53:46;;;;;;;2.13;1.58;;;;;;;;;;4969529;28;20208;-81
2022/07/16 13:56:12;;;;;;;1.83;1.73;;;;;;;;;;4967275;28;20225;-80
2022/07/16 13:58:37;;;;;;;2.72;1.67;;;;;;;;;;4975718;28;20248;-80
2022/07/16 14:01:03;;;;;;;5.53;2.15;;;;;;;;;;4976078;28;20184;-80
2022/07/16 14:03:29;;;;;;;1.73;1.63;;;;;;;;;;4974395;28;20177;-80
2022/07/16 14:08:29;;;;;;;2.33;2.13;;;;;;;;;;5046949;23;20243;-75
2022/07/16 14:10:55;;;;;;;2.00;1.80;;;;;;;;;;4971063;28;20240;-76
2022/07/16 14:13:20;;;;;;;3.35;1.67;;;;;;;;;;4969456;28;20187;-76
2022/07/16 14:15:46;;;;;;;2.05;1.90;;;;;;;;;;4976681;28;20455;-75
2022/07/16 14:18:11;;;;;;;9.90;2.25;;;;;;;;;;4970119;28;20239;-75
2022/07/16 14:20:39;;;;;;;4.18;2.08;;;;;;;;;;4972708;28;20185;-75
2022/07/16 14:23:05;;;;;;;3.53;2.20;;;;;;;;;;4973232;28;20184;-76
2022/07/16 14:25:31;;;;;;;3.65;1.92;;;;;;;;;;4971859;28;20188;-76
2022/07/16 14:27:57;;;;;;;2.10;1.90;;;;;;;;;;4953597;28;20200;-78
2022/07/16 14:30:23;;;;;;;2.33;1.85;;;;;;;;;;4965676;28;20204;-77
2022/07/16 14:32:48;;;;;;;3.92;2.25;;;;;;;;;;4969262;28;20181;-77
2022/07/16 14:35:13;;;;;;;3.72;1.90;;;;;;;;;;4976377;28;20177;-78
2022/07/16 14:37:40;;;;;;;3.60;2.28;;;;;;;;;;4970641;28;20240;-77
2022/07/16 14:40:06;;;;;;;3.38;1.90;;;;;;;;;;4972344;28;20204;-79
2022/07/16 14:42:31;;;;;;;3.05;2.08;;;;;;;;;;4967241;28;20177;-77
2022/07/16 14:44:56;;;;;;;2.92;1.70;;;;;;;;;;4972499;28;20187;-77
2022/07/16 14:47:22;;;;;;;2.40;2.10;;;;;;;;;;4971994;28;20200;-77
2022/07/16 14:49:47;;;;;;;2.88;2.10;;;;;;;;;;4971112;28;20187;-77
2022/07/16 14:52:12;;;;;;;1.90;1.80;;;;;;;;;;4968010;28;20181;-77
2022/07/16 14:54:37;;;;;;;2.97;1.92;;;;;;;;;;4970486;28;20302;-77
2022/07/16 14:57:02;;;;;;;3.20;2.20;;;;;;;;;;4977625;28;20197;-77